x

West Dixon Entrance (46205) Wave Buoy

3:00am - Sat 10th Dec 2016 All times are PST. -8 hours from GMT.

  • Sig Wave height 8.2ft
  • Peak Period 12s
  • Wind
    20mph, 25mph gusts
  • Sea Temp 48°f
  • Air Temp 40°f
  • Sea Pressure 1008.7mb
  • West Dixon Entrance
  • West Dixon Entrance

More Historic Weather Station data

Upgrade to MSW Pro to gain access to the past 30 days of data for over 8000 Wavebouys and Weather Stations around the globe.

Join Pro

Comparision Forecast

View Surf forecast
   
Sat 12/10 3:00am 8ft 12s 20 25 mph 1008.7mb 48f 40f
2:00am 8.5ft 10s 20 27 mph 1008.2mb 49f 41f
1:00am 8.5ft 7s 22 27 mph 1007.9mb 49f 41f
12:00am 9.5ft 10s 27 31 mph 1007.5mb 49f 40f
Fri 12/09 11:00pm 10ft 11s 27 31 mph 1006.9mb 49f 41f
10:00pm 10ft 10s 27 34 mph 1006.4mb 48f 41f
9:00pm 10ft 7s 27 31 mph 1006mb 48f 41f
8:00pm 10.5ft 7s 27 34 mph 1005.7mb 48f 40f
7:00pm 11ft 7s 29 36 mph 1005.3mb 49f 40f
6:00pm 10.5ft 7s 29 36 mph 1004.9mb 49f 41f
5:00pm 10.5ft 12s 29 38 mph 1004.5mb 49f 41f
4:00pm 11.5ft 13s 29 36 mph 1004.2mb 49f 42f
3:00pm 12ft 13s 29 36 mph 1003.9mb 49f 42f
2:00pm 12ft 12s 29 36 mph 1003.7mb 49f 42f
1:00pm 11ft 12s 31 36 mph 1003.6mb 49f 41f
12:00pm 11.5ft 11s 29 34 mph 1003.6mb 49f 42f
11:00am 11ft 12s 27 31 mph 1003.9mb 49f 41f
10:00am 11.5ft 11s 27 34 mph 1003.9mb 49f 41f
9:00am 11ft 12s 29 36 mph 1003.7mb 49f 41f
8:00am 12ft 11s 29 38 mph 1003.5mb 49f 41f
7:00am 12ft 10s 29 34 mph 1003.8mb 49f 41f
6:00am  -   -  29
mph
- - 41f
5:00am 11ft 12s 29 34 mph 1004.9mb 49f 41f
4:00am 11ft 10s 29 34 mph 1005.6mb 49f 41f
3:00am 11ft 10s 29 36 mph 1006.1mb 49f 41f
2:00am 11ft 7s 31 38 mph 1006.5mb 49f 41f
1:00am 11.5ft 12s 31 38 mph 1007mb 49f 41f
12:00am 11ft 7s 31 38 mph 1007.5mb 49f 41f
Thu 12/08 10:00pm 10.5ft 9s 29 36 mph 1008.7mb 49f 40f
9:00pm 11ft 9s 29 36 mph 1009mb 49f 41f
8:00pm 10.5ft 7s 27 36 mph 1009.5mb 49f 41f
7:00pm 10ft 8s 29 36 mph 1010.2mb 49f 41f
6:00pm 10ft 6s 29 36 mph 1010.9mb 49f 40f
5:00pm 9ft 7s 31 38 mph 1011.6mb 49f 40f
4:00pm 8ft 6s 31 36 mph 1012.2mb 49f 40f
3:00pm 8ft 6s 27 36 mph 1013.4mb 49f 40f
2:00pm 8ft 6s 31 36 mph 1014.3mb 49f 40f
1:00pm 9ft 7s 29 36 mph 1015.2mb 49f 40f
12:00pm 10ft 8s 29 38 mph 1015.9mb 49f 40f
11:00am 10ft 7s 31 38 mph 1016.6mb 49f 39f
10:00am 10ft 7s 31 36 mph 1017mb 49f 39f
9:00am 10ft 7s 31 38 mph 1017.4mb 49f 39f
8:00am 9ft 6s 31 38 mph 1017.8mb 49f 39f
7:00am 8ft 7s 31 36 mph 1018.6mb 49f 39f
6:00am 8ft 7s 29 34 mph 1019.3mb 49f 39f
5:00am 8ft 6s 27 31 mph 1020.1mb 49f 39f
4:00am 7ft 6s 25 29 mph 1021mb 49f 39f
3:00am 7ft 6s 25 29 mph 1021.8mb 49f 39f
2:00am 7ft 6s 22 29 mph 1022.6mb 49f 38f
1:00am 7ft 6s 22 27 mph 1023mb 49f 38f
12:00am 7ft 6s 20 27 mph 1023.5mb 49f 38f
Wed 12/07 11:00pm 8ft 6s 18 22 mph 1024.1mb 49f 38f
10:00pm 7.5ft 7s 18 27 mph 1024.5mb 49f 39f
9:00pm 8ft 6s 20 25 mph 1024.8mb 49f 39f
8:00pm 8ft 12s 18 20 mph 1025.1mb 49f 40f
7:00pm 8ft 7s 18 25 mph 1025.4mb 49f 40f
6:00pm 8ft 11s 22 27 mph 1025.6mb 49f 40f
5:00pm  -   -  25
mph
- - 41f
4:00pm 8ft 11s 25 31 mph 1025.9mb 49f 42f
3:00pm 8ft 13s 25 31 mph 1026.1mb 49f 42f
2:00pm 8ft 12s 22 29 mph 1026.5mb 49f 42f
1:00pm 8ft 12s 18 22 mph 1027mb 49f 41f
12:00pm 8ft 12s 22 27 mph 1027.1mb 49f 42f
11:00am 8ft 12s 25 31 mph 1027.1mb 49f 41f
10:00am 7.5ft 12s 20 25 mph 1027.3mb 49f 41f
9:00am 7ft 13s 18 22 mph 1027.2mb 49f 41f
8:00am 7ft 13s 18 25 mph 1027.1mb 49f 41f
7:00am 7ft 13s 18 22 mph 1027.2mb 49f 41f
6:00am 6ft 13s 20 25 mph 1027.4mb 49f 40f
5:00am 6ft 13s 20 25 mph 1027.7mb 49f 40f
4:00am 6.5ft 14s 18 22 mph 1028.1mb 49f 39f
3:00am 6ft 14s 20 22 mph 1028.4mb 49f 39f
2:00am 5.5ft 14s 20 22 mph 1028.6mb 49f 40f
1:00am 5ft 14s 18 22 mph 1028.6mb 49f 41f
12:00am 5ft 14s 16 20 mph 1028.6mb 49f 41f
Tue 12/06 11:00pm 4.5ft 14s 13 20 mph 1028.4mb 49f 41f
10:00pm 4.5ft 14s 13 16 mph 1028.3mb 49f 41f
9:00pm 4ft 14s 13 16 mph 1028.2mb 49f 40f
7:00pm 3.5ft 14s 9 11 mph 1028.4mb 49f 40f
6:00pm 4.5ft 14s 7 9 mph 1028.6mb 49f 40f
4:00pm 4.5ft 15s 4 9 mph 1028.8mb 49f 39f
3:00pm 4.5ft 8s 2 4 mph 1028.9mb 49f 40f
2:00pm 5ft 8s 4 7 mph 1028.8mb 49f 40f
1:00pm 5ft 8s 4 7 mph 1028.9mb 49f 39f